createdAt,value
2018-12-19T00:00:58.432Z,27.05
2018-12-19T00:03:25.117Z,25.35
2018-12-19T00:05:58.712Z,25.50
2018-12-19T00:08:25.363Z,24.15
2018-12-19T00:10:52.012Z,22.90
2018-12-19T00:13:19.088Z,25.68
2018-12-19T00:15:45.738Z,27.40
2018-12-19T00:18:13.540Z,19.85
2018-12-19T00:20:40.196Z,25.95
2018-12-19T00:23:06.835Z,24.27
2018-12-19T00:25:33.495Z,22.40
2018-12-19T00:28:00.180Z,28.85
2018-12-19T00:30:26.799Z,18.52
2018-12-19T00:32:53.459Z,22.45
2018-12-19T00:35:20.082Z,20.57
2018-12-19T00:37:46.739Z,21.85
2018-12-19T00:40:13.368Z,22.70
2018-12-19T00:42:40.158Z,20.80
2018-12-19T00:45:06.816Z,21.60
2018-12-19T00:47:33.440Z,20.17
2018-12-19T00:50:00.139Z,19.30
2018-12-19T00:52:26.755Z,16.45
2018-12-19T00:55:00.385Z,16.17
2018-12-19T00:57:27.063Z,18.60
2018-12-19T00:59:53.691Z,21.52
2018-12-19T01:02:21.530Z,18.17
2018-12-19T01:04:48.314Z,23.52
2018-12-19T01:07:15.163Z,22.45
2018-12-19T01:09:42.018Z,24.70
2018-12-19T01:12:08.715Z,22.25
2018-12-19T01:14:35.331Z,23.05
2018-12-19T01:17:01.976Z,21.15
2018-12-19T01:19:28.895Z,20.30
2018-12-19T01:21:55.559Z,32.80
2018-12-19T01:24:22.181Z,20.43
2018-12-19T01:26:48.836Z,18.40
2018-12-19T01:29:15.451Z,18.50
2018-12-19T01:31:42.170Z,19.23
2018-12-19T01:34:09.186Z,18.35
2018-12-19T01:36:35.832Z,17.82
2018-12-19T01:39:04.884Z,20.08
2018-12-19T01:41:31.499Z,17.73
2018-12-19T01:43:58.151Z,17.15
2018-12-19T01:46:24.770Z,24.92
2018-12-19T01:48:51.425Z,26.93
2018-12-19T01:51:18.092Z,39.60
2018-12-19T01:53:44.745Z,48.55
2018-12-19T01:56:11.411Z,51.68
2018-12-19T01:58:38.112Z,19.60
2018-12-19T02:01:04.743Z,41.08
2018-12-19T02:03:31.399Z,25.02
2018-12-19T02:05:58.006Z,21.62
2018-12-19T02:08:24.719Z,20.05
2018-12-19T02:10:51.343Z,19.45
2018-12-19T02:13:18.000Z,22.00
2018-12-19T02:15:44.618Z,24.57
2018-12-19T02:18:11.271Z,21.45
2018-12-19T02:20:37.919Z,21.23
2018-12-19T02:23:04.543Z,25.05
2018-12-19T02:25:31.199Z,21.05
2018-12-19T02:27:57.865Z,22.82
2018-12-19T02:30:24.498Z,23.52
2018-12-19T02:32:51.156Z,21.57
2018-12-19T02:35:17.771Z,22.55
2018-12-19T02:37:47.335Z,23.18
2018-12-19T02:40:13.955Z,19.30
2018-12-19T02:42:40.605Z,20.90
2018-12-19T02:45:07.259Z,19.25
2018-12-19T02:47:33.908Z,23.80
2018-12-19T02:50:00.531Z,21.97
2018-12-19T02:52:27.192Z,21.65
2018-12-19T02:54:54.612Z,22.07
2018-12-19T02:57:21.328Z,24.10
2018-12-19T02:59:47.956Z,21.07
2018-12-19T03:02:14.610Z,21.77
2018-12-19T03:04:41.228Z,21.23
2018-12-19T03:07:07.891Z,24.30
2018-12-19T03:09:34.512Z,22.48
2018-12-19T03:12:01.172Z,25.57
2018-12-19T03:14:27.789Z,26.10
2018-12-19T03:16:54.440Z,24.07
2018-12-19T03:19:21.100Z,24.45
2018-12-19T03:21:47.721Z,56.00
2018-12-19T03:24:14.384Z,76.42
2018-12-19T03:26:41.016Z,47.90
2018-12-19T03:29:07.676Z,26.17
2018-12-19T03:31:34.345Z,28.15
2018-12-19T03:34:01.123Z,31.05
2018-12-19T03:36:27.744Z,34.13
2018-12-19T03:38:54.412Z,36.03
2018-12-19T03:41:21.179Z,36.58
2018-12-19T03:43:47.835Z,36.35
2018-12-19T03:46:14.462Z,22.67
2018-12-19T03:49:01.238Z,30.90
2018-12-19T03:51:27.851Z,44.50
2018-12-19T03:53:54.507Z,27.00
2018-12-19T03:56:21.118Z,24.23
2018-12-19T03:58:47.816Z,21.68
2018-12-19T04:01:14.443Z,21.25
2018-12-19T04:03:41.101Z,80.72
2018-12-19T04:06:07.715Z,27.98
2018-12-19T04:08:34.372Z,25.25
2018-12-19T04:11:00.994Z,19.57
2018-12-19T04:13:27.653Z,19.20
2018-12-19T04:15:54.304Z,19.98
2018-12-19T04:18:20.922Z,19.23
2018-12-19T04:20:47.569Z,23.75
2018-12-19T04:23:14.182Z,19.90
2018-12-19T04:25:40.827Z,33.48
2018-12-19T04:28:08.356Z,20.85
2018-12-19T04:30:37.075Z,18.05
2018-12-19T04:33:03.734Z,21.73
2018-12-19T04:35:30.400Z,19.77
2018-12-19T04:37:57.163Z,19.67
2018-12-19T04:40:23.825Z,20.45
2018-12-19T04:42:51.884Z,15.38
2018-12-19T04:45:18.660Z,15.08
2018-12-19T04:47:45.284Z,14.98
2018-12-19T04:50:11.971Z,17.35
2018-12-19T04:52:38.586Z,18.50
2018-12-19T04:55:12.328Z,16.93
2018-12-19T04:57:38.986Z,18.52
2018-12-19T05:00:08.239Z,17.87
2018-12-19T05:02:34.898Z,16.37
2018-12-19T05:05:01.547Z,15.25
2018-12-19T05:07:28.453Z,13.93
2018-12-19T05:09:55.071Z,17.12
2018-12-19T05:12:21.728Z,18.60
2018-12-19T05:14:48.391Z,15.50
2018-12-19T05:17:15.052Z,15.65
2018-12-19T05:19:42.532Z,14.53
2018-12-19T05:22:09.179Z,14.40
2018-12-19T05:24:35.799Z,13.78
2018-12-19T05:27:02.470Z,14.50
2018-12-19T05:29:29.091Z,15.18
2018-12-19T05:31:55.751Z,13.88
2018-12-19T05:34:22.371Z,23.27
2018-12-19T05:36:49.032Z,22.13
2018-12-19T05:39:15.692Z,18.23
2018-12-19T05:41:42.314Z,16.17
2018-12-19T05:44:08.975Z,28.80
2018-12-19T05:46:35.594Z,18.62
2018-12-19T05:49:09.144Z,11.83
2018-12-19T05:51:35.768Z,11.20
2018-12-19T05:54:02.429Z,12.30
2018-12-19T05:56:29.083Z,11.80
2018-12-19T05:58:55.745Z,12.70
2018-12-19T06:01:22.477Z,10.13
2018-12-19T06:03:49.135Z,8.63
2018-12-19T06:06:15.763Z,11.43
2018-12-19T06:08:42.437Z,8.43
2018-12-19T06:11:09.067Z,7.95
2018-12-19T06:13:35.719Z,8.28
2018-12-19T06:16:02.391Z,7.92
2018-12-19T06:18:29.003Z,10.48
2018-12-19T06:20:55.663Z,12.05
2018-12-19T06:23:22.287Z,8.20
2018-12-19T06:25:48.939Z,11.22
2018-12-19T06:28:15.571Z,10.70
2018-12-19T06:30:42.232Z,10.98
2018-12-19T06:33:08.859Z,13.20
2018-12-19T06:35:35.516Z,9.25
2018-12-19T06:38:02.175Z,13.05
2018-12-19T06:40:32.681Z,8.53
2018-12-19T06:42:57.491Z,14.70
2018-12-19T06:45:24.115Z,13.03
2018-12-19T06:47:57.643Z,11.35
2018-12-19T06:50:24.303Z,13.35
2018-12-19T06:52:50.935Z,15.68
2018-12-19T06:55:17.604Z,11.00
2018-12-19T06:57:44.299Z,9.55
2018-12-19T07:00:10.934Z,9.90
2018-12-19T07:02:37.601Z,62.43
2018-12-19T07:05:04.379Z,58.38
2018-12-19T07:07:31.071Z,27.87
2018-12-19T07:09:57.691Z,19.55
2018-12-19T07:12:24.356Z,16.70
2018-12-19T07:14:51.002Z,17.10
2018-12-19T07:17:17.647Z,13.08
2018-12-19T07:19:44.282Z,10.85
2018-12-19T07:22:10.959Z,14.18
2018-12-19T07:24:37.624Z,12.78
2018-12-19T07:27:04.268Z,13.08
2018-12-19T07:29:30.915Z,11.28
2018-12-19T07:31:57.532Z,10.23
2018-12-19T07:34:24.202Z,11.00
2018-12-19T07:36:50.840Z,10.13
2018-12-19T07:39:17.501Z,10.15
2018-12-19T07:41:44.120Z,9.63
2018-12-19T07:44:10.779Z,8.28
2018-12-19T07:46:37.397Z,9.58
2018-12-19T07:49:04.064Z,12.78
2018-12-19T07:51:30.743Z,10.90
2018-12-19T07:53:57.410Z,12.50
2018-12-19T07:56:24.591Z,10.88
2018-12-19T07:58:51.265Z,9.85
2018-12-19T08:01:17.898Z,10.58
2018-12-19T08:03:44.565Z,12.47
2018-12-19T08:06:11.213Z,12.33
2018-12-19T08:08:37.834Z,12.13
2018-12-19T08:11:04.495Z,10.08
2018-12-19T08:13:31.120Z,10.00
2018-12-19T08:15:57.772Z,9.33
2018-12-19T08:18:24.416Z,11.22
2018-12-19T08:20:51.087Z,11.30
2018-12-19T08:23:17.718Z,7.95
2018-12-19T08:25:44.374Z,11.57
2018-12-19T08:28:11.011Z,17.20
2018-12-19T08:30:37.696Z,13.93
2018-12-19T08:33:04.388Z,10.18
2018-12-19T08:35:31.031Z,13.72
2018-12-19T08:37:57.699Z,11.43
2018-12-19T08:40:24.353Z,12.07
2018-12-19T08:42:51.039Z,11.10
2018-12-19T08:45:18.036Z,12.23
2018-12-19T08:47:44.712Z,9.38
2018-12-19T08:50:11.355Z,10.45
2018-12-19T08:52:38.079Z,9.70
2018-12-19T08:55:05.395Z,10.28
2018-12-19T08:57:32.077Z,8.55
2018-12-19T08:59:58.724Z,8.23
2018-12-19T09:02:25.387Z,9.60
2018-12-19T09:04:52.028Z,8.18
2018-12-19T09:07:18.700Z,9.25
2018-12-19T09:09:45.358Z,9.45
2018-12-19T09:12:12.008Z,9.65
2018-12-19T09:14:38.692Z,9.20
2018-12-19T09:17:05.774Z,9.25
2018-12-19T09:19:32.817Z,8.60
2018-12-19T09:21:59.794Z,7.87
2018-12-19T09:24:26.480Z,7.67
2018-12-19T09:26:53.110Z,7.22
2018-12-19T09:29:19.779Z,7.12
2018-12-19T09:31:46.444Z,7.28
2018-12-19T09:34:14.003Z,7.30
2018-12-19T09:36:43.603Z,9.53
2018-12-19T09:39:10.292Z,7.90
2018-12-19T09:41:36.924Z,11.00
2018-12-19T09:44:03.611Z,8.80
2018-12-19T09:46:30.275Z,9.00
2018-12-19T09:48:56.919Z,7.00
2018-12-19T09:51:23.622Z,7.35
2018-12-19T09:53:50.412Z,7.95
2018-12-19T09:56:17.578Z,6.33
2018-12-19T09:58:44.208Z,6.78
2018-12-19T10:01:10.914Z,8.43
2018-12-19T10:03:37.591Z,8.05
2018-12-19T10:06:04.403Z,6.70
2018-12-19T10:08:31.027Z,8.23
2018-12-19T10:10:57.683Z,8.08
2018-12-19T10:13:24.315Z,7.37
2018-12-19T10:15:50.951Z,6.28
2018-12-19T10:18:17.607Z,9.95
2018-12-19T10:20:44.263Z,6.53
2018-12-19T10:23:10.936Z,6.03
2018-12-19T10:25:37.554Z,6.28
2018-12-19T10:28:04.259Z,6.00
2018-12-19T10:30:32.938Z,8.50
2018-12-19T10:32:59.786Z,6.65
2018-12-19T10:35:26.492Z,9.48
2018-12-19T10:37:53.342Z,5.85
2018-12-19T10:40:19.980Z,8.10
2018-12-19T10:42:46.655Z,4.58
2018-12-19T10:45:13.297Z,7.33
2018-12-19T10:47:39.963Z,5.35
2018-12-19T10:50:06.991Z,4.08
2018-12-19T10:52:34.727Z,6.72
2018-12-19T10:55:01.459Z,3.50
2018-12-19T10:57:28.113Z,5.08
2018-12-19T10:59:55.474Z,3.70
2018-12-19T11:02:22.140Z,4.30
2018-12-19T11:04:48.800Z,3.70
2018-12-19T11:07:15.452Z,4.97
2018-12-19T11:09:42.156Z,3.20
2018-12-19T11:12:08.820Z,2.75
2018-12-19T11:14:35.503Z,3.27
2018-12-19T11:17:02.299Z,3.60
2018-12-19T11:19:28.972Z,4.00
2018-12-19T11:21:56.556Z,3.37
2018-12-19T11:24:23.479Z,3.50
2018-12-19T11:26:50.520Z,3.50
2018-12-19T11:29:17.151Z,3.20
2018-12-19T11:31:43.831Z,4.50
2018-12-19T11:34:10.491Z,4.10
2018-12-19T11:36:37.120Z,5.22
2018-12-19T11:39:06.626Z,4.67
2018-12-19T11:41:38.951Z,3.17
2018-12-19T11:44:02.274Z,4.83
2018-12-19T11:46:28.979Z,4.80
2018-12-19T11:48:55.616Z,5.42
2018-12-19T11:51:22.356Z,3.75
2018-12-19T11:53:48.999Z,4.08
2018-12-19T11:56:15.675Z,3.58
2018-12-19T11:58:42.348Z,5.03
2018-12-19T12:01:09.007Z,4.58
2018-12-19T12:03:35.678Z,6.50
2018-12-19T12:06:02.317Z,6.00
2018-12-19T12:08:29.381Z,11.20
2018-12-19T12:10:56.007Z,3.47
2018-12-19T12:13:22.664Z,3.55
2018-12-19T12:15:49.282Z,3.30
2018-12-19T12:18:15.969Z,3.75
2018-12-19T12:20:42.606Z,3.42
2018-12-19T12:23:09.275Z,3.00
2018-12-19T12:25:35.922Z,3.22
2018-12-19T12:28:02.607Z,3.83
2018-12-19T12:30:29.232Z,3.80
2018-12-19T12:32:55.902Z,4.50
2018-12-19T12:35:22.559Z,3.80
2018-12-19T12:37:49.211Z,3.77
2018-12-19T12:40:15.894Z,3.95
2018-12-19T12:42:42.538Z,5.72
2018-12-19T12:45:09.229Z,4.70
2018-12-19T12:47:35.896Z,5.17
2018-12-19T12:50:04.248Z,4.03
2018-12-19T12:52:30.943Z,6.28
2018-12-19T12:54:57.604Z,6.10
2018-12-19T12:57:24.223Z,5.28
2018-12-19T12:59:50.887Z,7.37
2018-12-19T13:02:17.515Z,3.45
2018-12-19T13:04:46.087Z,4.15
2018-12-19T13:07:12.765Z,5.15
2018-12-19T13:09:39.383Z,3.25
2018-12-19T13:12:06.081Z,4.40
2018-12-19T13:14:32.778Z,5.80
2018-12-19T13:16:59.444Z,5.03
2018-12-19T13:19:26.091Z,4.03
2018-12-19T13:21:52.746Z,3.55
2018-12-19T13:24:19.368Z,4.12
2018-12-19T13:26:46.028Z,5.30
2018-12-19T13:29:12.671Z,5.58
2018-12-19T13:31:39.365Z,3.02
2018-12-19T13:34:05.996Z,2.95
2018-12-19T13:36:32.683Z,3.10
2018-12-19T13:38:59.336Z,5.97
2018-12-19T13:41:25.983Z,3.30
2018-12-19T13:43:52.652Z,4.80
2018-12-19T13:46:19.287Z,3.55
2018-12-19T13:48:46.140Z,3.90
2018-12-19T13:51:13.028Z,4.10
2018-12-19T13:53:39.728Z,3.05
2018-12-19T13:56:06.387Z,9.70
2018-12-19T13:58:33.680Z,3.52
2018-12-19T14:01:00.364Z,3.20
2018-12-19T14:03:27.017Z,6.20
2018-12-19T14:05:53.695Z,7.72
2018-12-19T14:08:20.342Z,3.27
2018-12-19T14:10:47.036Z,3.35
2018-12-19T14:13:13.668Z,4.00
2018-12-19T14:15:47.219Z,3.12
2018-12-19T14:18:13.897Z,3.27
2018-12-19T14:20:47.459Z,3.27
2018-12-19T14:23:14.122Z,3.08
2018-12-19T14:25:40.743Z,3.70
2018-12-19T14:28:07.455Z,4.42
2018-12-19T14:30:34.083Z,2.87
2018-12-19T14:33:00.731Z,4.42
2018-12-19T14:35:27.357Z,5.42
2018-12-19T14:37:54.014Z,5.08
2018-12-19T14:40:20.668Z,3.52
2018-12-19T14:42:47.323Z,2.62
2018-12-19T14:45:14.323Z,4.40
2018-12-19T14:47:41.003Z,9.23
2018-12-19T14:50:07.786Z,5.95
2018-12-19T14:52:34.476Z,4.72
2018-12-19T14:55:01.134Z,9.80
2018-12-19T14:57:27.783Z,6.10
2018-12-19T14:59:54.458Z,6.42
2018-12-19T15:02:21.095Z,11.03
2018-12-19T15:04:48.960Z,9.10
2018-12-19T15:07:17.018Z,6.17
2018-12-19T15:09:43.717Z,5.70
2018-12-19T15:12:10.352Z,5.30
2018-12-19T15:14:37.015Z,3.75
2018-12-19T15:17:03.677Z,4.30
2018-12-19T15:19:30.340Z,5.78
2018-12-19T15:21:56.967Z,6.25
2018-12-19T15:24:23.632Z,5.15
2018-12-19T15:26:50.255Z,3.80
2018-12-19T15:29:16.907Z,7.17
2018-12-19T15:31:43.532Z,3.75
2018-12-19T15:34:10.200Z,3.72
2018-12-19T15:36:36.913Z,2.95
2018-12-19T15:39:05.812Z,3.67
2018-12-19T15:41:32.492Z,2.70
2018-12-19T15:43:59.108Z,6.30
2018-12-19T15:46:25.768Z,4.40
2018-12-19T15:48:52.429Z,6.47
2018-12-19T15:51:19.083Z,2.98
2018-12-19T15:53:45.702Z,3.40
2018-12-19T15:56:12.375Z,14.03
2018-12-19T15:58:39.034Z,37.88
2018-12-19T16:01:05.788Z,10.45
2018-12-19T16:03:33.285Z,3.92
2018-12-19T16:05:59.980Z,5.22
2018-12-19T16:08:27.597Z,5.65
2018-12-19T16:10:54.499Z,8.48
2018-12-19T16:13:27.936Z,6.03
2018-12-19T16:15:54.808Z,5.33
2018-12-19T16:18:21.454Z,3.77
2018-12-19T16:20:48.140Z,5.85
2018-12-19T16:23:15.263Z,4.78
2018-12-19T16:25:41.931Z,8.63
2018-12-19T16:28:08.579Z,8.23
2018-12-19T16:30:35.273Z,6.92
2018-12-19T16:33:01.899Z,8.68
2018-12-19T16:35:28.565Z,10.58
2018-12-19T16:37:55.182Z,7.75
2018-12-19T16:40:21.847Z,10.00
2018-12-19T16:42:48.484Z,3.77
2018-12-19T16:45:15.179Z,4.45
2018-12-19T16:47:41.807Z,5.92
2018-12-19T16:50:08.482Z,8.03
2018-12-19T16:52:35.158Z,11.73
2018-12-19T16:55:02.577Z,6.83
2018-12-19T16:57:29.239Z,6.65
2018-12-19T16:59:55.872Z,5.65
2018-12-19T17:02:22.536Z,5.33
2018-12-19T17:04:49.163Z,4.87
2018-12-19T17:07:15.824Z,9.55
2018-12-19T17:09:42.446Z,7.37
2018-12-19T17:12:09.102Z,9.78
2018-12-19T17:14:42.735Z,8.10
2018-12-19T17:17:09.407Z,5.65
2018-12-19T17:19:36.044Z,10.32
2018-12-19T17:22:03.014Z,6.20
2018-12-19T17:24:35.671Z,5.55
2018-12-19T17:27:02.361Z,15.53
2018-12-19T17:29:29.016Z,6.85
2018-12-19T17:31:55.674Z,6.22
2018-12-19T17:34:22.288Z,6.08
2018-12-19T17:36:48.950Z,5.80
2018-12-19T17:39:15.562Z,16.57
2018-12-19T17:41:42.232Z,16.10
2018-12-19T17:44:08.940Z,8.23
2018-12-19T17:46:35.579Z,5.15
2018-12-19T17:49:02.255Z,5.72
2018-12-19T17:51:28.880Z,5.50
2018-12-19T17:53:55.536Z,4.58
2018-12-19T17:56:22.177Z,8.15
2018-12-19T17:58:48.854Z,7.60
2018-12-19T18:01:15.756Z,5.08
2018-12-19T18:03:42.415Z,5.17
2018-12-19T18:06:09.040Z,20.72
2018-12-19T18:08:35.700Z,4.97
2018-12-19T18:11:02.486Z,6.87
2018-12-19T18:13:36.115Z,5.12
2018-12-19T18:16:02.805Z,8.50
2018-12-19T18:21:31.815Z,5.72
2018-12-19T18:23:58.517Z,5.95
2018-12-19T18:26:25.611Z,5.65
2018-12-19T18:28:52.351Z,6.40
2018-12-19T18:31:19.105Z,4.70
2018-12-19T18:33:45.943Z,4.83
2018-12-19T18:36:12.627Z,4.42
2018-12-19T18:38:39.252Z,3.62
2018-12-19T18:41:05.911Z,4.95
2018-12-19T18:43:32.574Z,6.97
2018-12-19T18:45:59.244Z,5.75
2018-12-19T18:48:25.875Z,5.03
2018-12-19T18:50:52.564Z,5.58
2018-12-19T18:53:19.196Z,5.45
2018-12-19T18:55:45.879Z,12.35
2018-12-19T18:58:12.614Z,5.83
2018-12-19T19:00:39.260Z,5.87
2018-12-19T19:03:06.018Z,6.37
2018-12-19T19:05:32.729Z,6.55
2018-12-19T19:07:59.365Z,6.97
2018-12-19T19:10:26.043Z,7.78
2018-12-19T19:12:52.716Z,7.58
2018-12-19T19:15:19.375Z,11.83
2018-12-19T19:17:46.046Z,9.83
2018-12-19T19:20:12.851Z,10.00
2018-12-19T19:22:39.466Z,7.37
2018-12-19T19:25:06.164Z,6.12
2018-12-19T19:27:32.835Z,7.05
2018-12-19T19:29:59.461Z,5.83
2018-12-19T19:32:26.137Z,5.60
2018-12-19T19:34:52.801Z,6.05
2018-12-19T19:37:19.431Z,8.68
2018-12-19T19:39:46.079Z,7.85
2018-12-19T19:42:12.728Z,6.58
2018-12-19T19:44:46.428Z,5.25
2018-12-19T19:47:13.084Z,9.25
2018-12-19T19:49:39.711Z,10.68
2018-12-19T19:52:07.247Z,6.80
2018-12-19T19:54:33.928Z,6.03
2018-12-19T19:57:00.561Z,6.92
2018-12-19T19:59:27.225Z,7.97
2018-12-19T20:01:53.884Z,9.70
2018-12-19T20:04:20.508Z,6.00
2018-12-19T20:06:47.163Z,5.95
2018-12-19T20:09:13.846Z,7.20
2018-12-19T20:11:40.945Z,6.53
2018-12-19T20:14:07.622Z,7.10
2018-12-19T20:16:37.183Z,5.17
2018-12-19T20:19:03.865Z,5.12
2018-12-19T20:21:30.596Z,5.37
2018-12-19T20:23:57.977Z,5.40
2018-12-19T20:26:24.643Z,6.08
2018-12-19T20:28:51.328Z,7.75
2018-12-19T20:31:18.025Z,5.12
2018-12-19T20:33:44.683Z,6.45
2018-12-19T20:36:11.347Z,4.85
2018-12-19T20:38:38.026Z,6.00
2018-12-19T20:41:04.713Z,6.20
2018-12-19T20:43:32.428Z,5.35
2018-12-19T20:45:59.259Z,6.20
2018-12-19T20:48:26.091Z,7.28
2018-12-19T20:50:52.833Z,7.70
2018-12-19T20:53:19.549Z,8.48
2018-12-19T20:55:46.210Z,9.05
2018-12-19T20:58:12.961Z,9.00
2018-12-19T21:00:39.728Z,6.00
2018-12-19T21:03:07.276Z,6.20
2018-12-19T21:05:34.028Z,6.22
2018-12-19T21:08:00.810Z,6.25
2018-12-19T21:10:27.468Z,4.72
2018-12-19T21:12:54.163Z,5.47
2018-12-19T21:15:20.844Z,6.35
2018-12-19T21:17:53.477Z,8.48
2018-12-19T21:20:20.344Z,8.00
2018-12-19T21:22:47.342Z,10.72
2018-12-19T21:25:14.792Z,5.45
2018-12-19T21:27:41.563Z,6.75
2018-12-19T21:30:08.355Z,10.63
2018-12-19T21:32:35.040Z,9.75
2018-12-19T21:35:01.757Z,10.45
2018-12-19T21:37:28.391Z,8.53
2018-12-19T21:40:01.945Z,6.70
2018-12-19T21:42:28.628Z,9.43
2018-12-19T21:44:55.456Z,7.03
2018-12-19T21:47:22.108Z,6.55
2018-12-19T21:49:48.889Z,9.58
2018-12-19T21:52:15.710Z,8.23
2018-12-19T21:54:42.506Z,9.25
2018-12-19T21:57:09.187Z,12.58
2018-12-19T21:59:35.937Z,9.53
2018-12-19T22:02:02.767Z,6.30
2018-12-19T22:04:29.433Z,8.23
2018-12-19T22:06:56.294Z,16.55
2018-12-19T22:09:23.101Z,10.68
2018-12-19T22:11:49.824Z,10.15
2018-12-19T22:14:16.652Z,18.15
2018-12-19T22:16:49.363Z,8.50
2018-12-19T22:19:16.254Z,8.05
2018-12-19T22:21:43.043Z,10.30
2018-12-19T22:24:09.742Z,17.02
2018-12-19T22:26:36.488Z,7.25
2018-12-19T22:29:10.017Z,10.10
2018-12-19T22:31:36.663Z,9.10
2018-12-19T22:34:03.345Z,9.63
2018-12-19T22:36:30.010Z,12.00
2018-12-19T22:38:56.675Z,12.40
2018-12-19T22:41:23.356Z,10.80
2018-12-19T22:43:50.153Z,11.28
2018-12-19T22:46:16.805Z,14.28
2018-12-19T22:48:43.484Z,12.13
2018-12-19T22:51:10.204Z,12.20
2018-12-19T22:53:37.199Z,13.38
2018-12-19T22:56:04.294Z,14.43
2018-12-19T22:58:31.370Z,12.40
2018-12-19T23:01:04.744Z,13.00
2018-12-19T23:03:37.660Z,16.17
2018-12-19T23:06:04.644Z,11.63
2018-12-19T23:08:31.597Z,17.00
2018-12-19T23:10:58.458Z,22.60
2018-12-19T23:13:25.490Z,12.33
2018-12-19T23:15:52.506Z,13.00
2018-12-19T23:18:25.613Z,16.40
2018-12-19T23:20:52.531Z,14.38
2018-12-19T23:23:19.403Z,17.45
2018-12-19T23:25:46.292Z,17.00
2018-12-19T23:28:19.929Z,20.43
2018-12-19T23:30:46.651Z,13.40
2018-12-19T23:33:13.326Z,17.12
2018-12-19T23:35:40.077Z,17.37
2018-12-19T23:38:06.793Z,16.60
2018-12-19T23:40:33.486Z,15.03
2018-12-19T23:43:00.240Z,16.07
2018-12-19T23:45:26.930Z,18.48
2018-12-19T23:47:53.725Z,15.88
2018-12-19T23:50:20.494Z,18.07
2018-12-19T23:52:47.381Z,14.10
2018-12-19T23:55:14.232Z,17.02
2018-12-19T23:57:48.168Z,14.25
